sensor_id;sensor_type;location;lat;lon;timestamp;temperature;humidity
20139;DHT22;10230;51.502;10.800;2023-04-06T00:01:49;2.60;99.90
20139;DHT22;10230;51.502;10.800;2023-04-06T00:04:15;2.60;99.90
20139;DHT22;10230;51.502;10.800;2023-04-06T00:06:41;2.60;99.90
20139;DHT22;10230;51.502;10.800;2023-04-06T00:09:07;2.60;99.90
20139;DHT22;10230;51.502;10.800;2023-04-06T00:11:33;2.60;99.90
20139;DHT22;10230;51.502;10.800;2023-04-06T00:13:59;2.60;99.90
20139;DHT22;10230;51.502;10.800;2023-04-06T00:16:24;2.60;99.90
20139;DHT22;10230;51.502;10.800;2023-04-06T00:18:50;2.50;99.90
20139;DHT22;10230;51.502;10.800;2023-04-06T00:21:16;2.50;99.90
20139;DHT22;10230;51.502;10.800;2023-04-06T00:23:42;2.50;99.90
20139;DHT22;10230;51.502;10.800;2023-04-06T00:26:10;2.50;99.90
20139;DHT22;10230;51.502;10.800;2023-04-06T00:28:37;2.50;99.90
20139;DHT22;10230;51.502;10.800;2023-04-06T00:31:03;2.40;99.90
20139;DHT22;10230;51.502;10.800;2023-04-06T00:33:29;2.40;99.90
20139;DHT22;10230;51.502;10.800;2023-04-06T00:35:54;2.40;99.90
20139;DHT22;10230;51.502;10.800;2023-04-06T00:38:21;2.40;99.90
20139;DHT22;10230;51.502;10.800;2023-04-06T00:40:47;2.30;99.90
20139;DHT22;10230;51.502;10.800;2023-04-06T00:43:13;2.30;99.90
20139;DHT22;10230;51.502;10.800;2023-04-06T00:45:39;2.30;99.90
20139;DHT22;10230;51.502;10.800;2023-04-06T00:48:06;2.30;99.90
20139;DHT22;10230;51.502;10.800;2023-04-06T00:50:32;2.30;99.90
20139;DHT22;10230;51.502;10.800;2023-04-06T00:53:01;2.20;99.90
20139;DHT22;10230;51.502;10.800;2023-04-06T00:55:28;2.20;99.90
20139;DHT22;10230;51.502;10.800;2023-04-06T00:57:54;2.20;99.90
20139;DHT22;10230;51.502;10.800;2023-04-06T01:00:22;2.20;99.90
20139;DHT22;10230;51.502;10.800;2023-04-06T01:02:47;2.20;99.90
20139;DHT22;10230;51.502;10.800;2023-04-06T01:05:14;2.20;99.90
20139;DHT22;10230;51.502;10.800;2023-04-06T01:07:40;2.10;99.90
20139;DHT22;10230;51.502;10.800;2023-04-06T01:10:06;2.10;99.90
20139;DHT22;10230;51.502;10.800;2023-04-06T01:12:32;2.10;99.90
20139;DHT22;10230;51.502;10.800;2023-04-06T01:14:57;2.10;99.90
20139;DHT22;10230;51.502;10.800;2023-04-06T01:17:23;2.10;99.90
20139;DHT22;10230;51.502;10.800;2023-04-06T01:19:49;2.10;99.90
20139;DHT22;10230;51.502;10.800;2023-04-06T01:22:17;2.00;99.90
20139;DHT22;10230;51.502;10.800;2023-04-06T01:24:43;2.00;99.90
20139;DHT22;10230;51.502;10.800;2023-04-06T01:27:09;2.00;99.90
20139;DHT22;10230;51.502;10.800;2023-04-06T01:29:35;2.00;99.90
20139;DHT22;10230;51.502;10.800;2023-04-06T01:32:00;2.00;99.90
20139;DHT22;10230;51.502;10.800;2023-04-06T01:34:26;1.90;99.90
20139;DHT22;10230;51.502;10.800;2023-04-06T01:36:52;1.90;99.90
20139;DHT22;10230;51.502;10.800;2023-04-06T01:39:18;1.90;99.90
20139;DHT22;10230;51.502;10.800;2023-04-06T01:41:44;1.90;99.90
20139;DHT22;10230;51.502;10.800;2023-04-06T01:44:10;1.80;99.90
20139;DHT22;10230;51.502;10.800;2023-04-06T01:46:35;1.80;99.90
20139;DHT22;10230;51.502;10.800;2023-04-06T01:49:01;1.80;99.90
20139;DHT22;10230;51.502;10.800;2023-04-06T01:51:27;1.80;99.90
20139;DHT22;10230;51.502;10.800;2023-04-06T01:53:52;1.70;99.90
20139;DHT22;10230;51.502;10.800;2023-04-06T01:56:18;1.70;99.90
20139;DHT22;10230;51.502;10.800;2023-04-06T01:58:44;1.70;99.90
20139;DHT22;10230;51.502;10.800;2023-04-06T02:01:09;1.70;99.90
20139;DHT22;10230;51.502;10.800;2023-04-06T02:03:35;1.60;99.90
20139;DHT22;10230;51.502;10.800;2023-04-06T02:06:01;1.60;99.90
20139;DHT22;10230;51.502;10.800;2023-04-06T02:08:27;1.60;99.90
20139;DHT22;10230;51.502;10.800;2023-04-06T02:10:52;1.60;99.90
20139;DHT22;10230;51.502;10.800;2023-04-06T02:13:18;1.60;99.90
20139;DHT22;10230;51.502;10.800;2023-04-06T02:15:44;1.50;99.90
20139;DHT22;10230;51.502;10.800;2023-04-06T02:18:09;1.50;99.90
20139;DHT22;10230;51.502;10.800;2023-04-06T02:20:35;1.50;99.90
20139;DHT22;10230;51.502;10.800;2023-04-06T02:23:01;1.50;99.90
20139;DHT22;10230;51.502;10.800;2023-04-06T02:25:26;1.50;99.90
20139;DHT22;10230;51.502;10.800;2023-04-06T02:27:53;1.50;99.90
20139;DHT22;10230;51.502;10.800;2023-04-06T02:30:19;1.50;99.90
20139;DHT22;10230;51.502;10.800;2023-04-06T02:32:44;1.50;99.90
20139;DHT22;10230;51.502;10.800;2023-04-06T02:35:10;1.60;99.90
20139;DHT22;10230;51.502;10.800;2023-04-06T02:37:36;1.50;99.90
20139;DHT22;10230;51.502;10.800;2023-04-06T02:40:01;1.50;99.90
20139;DHT22;10230;51.502;10.800;2023-04-06T02:42:27;1.50;99.90
20139;DHT22;10230;51.502;10.800;2023-04-06T02:44:53;1.60;99.90
20139;DHT22;10230;51.502;10.800;2023-04-06T02:47:19;1.60;99.90
20139;DHT22;10230;51.502;10.800;2023-04-06T02:49:45;1.60;99.90
20139;DHT22;10230;51.502;10.800;2023-04-06T02:52:11;1.50;99.90
20139;DHT22;10230;51.502;10.800;2023-04-06T02:54:37;1.50;99.90
20139;DHT22;10230;51.502;10.800;2023-04-06T02:57:02;1.50;99.90
20139;DHT22;10230;51.502;10.800;2023-04-06T02:59:28;1.50;99.90
20139;DHT22;10230;51.502;10.800;2023-04-06T03:01:53;1.50;99.90
20139;DHT22;10230;51.502;10.800;2023-04-06T03:04:19;1.50;99.90
20139;DHT22;10230;51.502;10.800;2023-04-06T03:06:47;1.50;99.90
20139;DHT22;10230;51.502;10.800;2023-04-06T03:09:12;1.50;99.90
20139;DHT22;10230;51.502;10.800;2023-04-06T03:11:39;1.40;99.90
20139;DHT22;10230;51.502;10.800;2023-04-06T03:14:05;1.50;99.90
20139;DHT22;10230;51.502;10.800;2023-04-06T03:16:31;1.40;99.90
20139;DHT22;10230;51.502;10.800;2023-04-06T03:18:56;1.40;99.90
20139;DHT22;10230;51.502;10.800;2023-04-06T03:21:22;1.40;99.90
20139;DHT22;10230;51.502;10.800;2023-04-06T03:23:48;1.40;99.90
20139;DHT22;10230;51.502;10.800;2023-04-06T03:26:16;1.30;99.90
20139;DHT22;10230;51.502;10.800;2023-04-06T03:28:42;1.30;99.90
20139;DHT22;10230;51.502;10.800;2023-04-06T03:31:08;1.30;99.90
20139;DHT22;10230;51.502;10.800;2023-04-06T03:33:33;1.30;99.90
20139;DHT22;10230;51.502;10.800;2023-04-06T03:35:59;1.20;99.90
20139;DHT22;10230;51.502;10.800;2023-04-06T03:38:25;1.20;99.90
20139;DHT22;10230;51.502;10.800;2023-04-06T03:40:51;1.20;99.90
20139;DHT22;10230;51.502;10.800;2023-04-06T03:43:16;1.20;99.90
20139;DHT22;10230;51.502;10.800;2023-04-06T03:45:42;1.20;99.90
20139;DHT22;10230;51.502;10.800;2023-04-06T03:48:07;1.20;99.90
20139;DHT22;10230;51.502;10.800;2023-04-06T03:50:33;1.20;99.90
20139;DHT22;10230;51.502;10.800;2023-04-06T03:52:59;1.20;99.90
20139;DHT22;10230;51.502;10.800;2023-04-06T03:55:27;1.20;99.90
20139;DHT22;10230;51.502;10.800;2023-04-06T03:57:52;1.10;99.90
20139;DHT22;10230;51.502;10.800;2023-04-06T04:00:18;1.20;99.90
20139;DHT22;10230;51.502;10.800;2023-04-06T04:02:44;1.10;99.90
20139;DHT22;10230;51.502;10.800;2023-04-06T04:05:09;1.10;99.90
20139;DHT22;10230;51.502;10.800;2023-04-06T04:07:35;1.10;99.90
20139;DHT22;10230;51.502;10.800;2023-04-06T04:10:01;1.10;99.90
20139;DHT22;10230;51.502;10.800;2023-04-06T04:12:26;1.10;99.90
20139;DHT22;10230;51.502;10.800;2023-04-06T04:14:52;1.10;99.90
20139;DHT22;10230;51.502;10.800;2023-04-06T04:17:18;1.10;99.90
20139;DHT22;10230;51.502;10.800;2023-04-06T04:19:43;1.10;99.90
20139;DHT22;10230;51.502;10.800;2023-04-06T04:22:09;1.10;99.90
20139;DHT22;10230;51.502;10.800;2023-04-06T04:24:35;1.10;99.90
20139;DHT22;10230;51.502;10.800;2023-04-06T04:27:00;1.00;99.90
20139;DHT22;10230;51.502;10.800;2023-04-06T04:29:26;1.00;99.90
20139;DHT22;10230;51.502;10.800;2023-04-06T04:31:52;1.00;99.90
20139;DHT22;10230;51.502;10.800;2023-04-06T04:34:18;0.90;99.90
20139;DHT22;10230;51.502;10.800;2023-04-06T04:36:46;0.90;99.90
20139;DHT22;10230;51.502;10.800;2023-04-06T04:39:12;0.90;99.90
20139;DHT22;10230;51.502;10.800;2023-04-06T04:41:37;0.90;99.90
20139;DHT22;10230;51.502;10.800;2023-04-06T04:44:03;0.90;99.90
20139;DHT22;10230;51.502;10.800;2023-04-06T04:46:29;0.90;99.90
20139;DHT22;10230;51.502;10.800;2023-04-06T04:48:55;0.90;99.90
20139;DHT22;10230;51.502;10.800;2023-04-06T04:51:21;0.90;99.90
20139;DHT22;10230;51.502;10.800;2023-04-06T04:53:46;0.90;99.90
20139;DHT22;10230;51.502;10.800;2023-04-06T04:56:12;0.90;99.90
20139;DHT22;10230;51.502;10.800;2023-04-06T04:58:38;0.90;99.90
20139;DHT22;10230;51.502;10.800;2023-04-06T05:01:03;1.00;99.90
20139;DHT22;10230;51.502;10.800;2023-04-06T05:03:29;1.00;99.90
20139;DHT22;10230;51.502;10.800;2023-04-06T05:05:55;1.00;99.90
20139;DHT22;10230;51.502;10.800;2023-04-06T05:08:21;1.00;99.90
20139;DHT22;10230;51.502;10.800;2023-04-06T05:10:47;1.10;99.90
20139;DHT22;10230;51.502;10.800;2023-04-06T05:13:14;1.10;99.90
20139;DHT22;10230;51.502;10.800;2023-04-06T05:15:40;1.10;99.90
20139;DHT22;10230;51.502;10.800;2023-04-06T05:18:08;1.20;99.90
20139;DHT22;10230;51.502;10.800;2023-04-06T05:20:35;1.20;99.90
20139;DHT22;10230;51.502;10.800;2023-04-06T05:23:01;1.30;99.90
20139;DHT22;10230;51.502;10.800;2023-04-06T05:25:27;1.40;99.90
20139;DHT22;10230;51.502;10.800;2023-04-06T05:27:52;1.40;99.90
20139;DHT22;10230;51.502;10.800;2023-04-06T05:30:18;1.50;99.90
20139;DHT22;10230;51.502;10.800;2023-04-06T05:32:45;1.50;99.90
20139;DHT22;10230;51.502;10.800;2023-04-06T05:35:10;1.60;99.90
20139;DHT22;10230;51.502;10.800;2023-04-06T05:37:38;1.70;99.90
20139;DHT22;10230;51.502;10.800;2023-04-06T05:40:04;1.80;99.90
20139;DHT22;10230;51.502;10.800;2023-04-06T05:42:37;1.90;99.90
20139;DHT22;10230;51.502;10.800;2023-04-06T05:45:05;2.00;99.90
20139;DHT22;10230;51.502;10.800;2023-04-06T05:47:31;2.10;99.90
20139;DHT22;10230;51.502;10.800;2023-04-06T05:49:57;2.20;99.90
20139;DHT22;10230;51.502;10.800;2023-04-06T05:52:23;2.30;99.90
20139;DHT22;10230;51.502;10.800;2023-04-06T05:54:48;2.40;99.90
20139;DHT22;10230;51.502;10.800;2023-04-06T05:57:14;2.50;99.90
20139;DHT22;10230;51.502;10.800;2023-04-06T05:59:40;2.60;99.90
20139;DHT22;10230;51.502;10.800;2023-04-06T06:02:05;2.70;99.90
20139;DHT22;10230;51.502;10.800;2023-04-06T06:04:31;2.80;99.90
20139;DHT22;10230;51.502;10.800;2023-04-06T06:16:42;3.30;99.90
20139;DHT22;10230;51.502;10.800;2023-04-06T06:21:34;3.50;99.90
20139;DHT22;10230;51.502;10.800;2023-04-06T06:24:00;3.60;99.90
20139;DHT22;10230;51.502;10.800;2023-04-06T06:26:26;3.70;99.90
20139;DHT22;10230;51.502;10.800;2023-04-06T06:28:52;3.80;99.90
20139;DHT22;10230;51.502;10.800;2023-04-06T06:31:17;3.90;99.90
20139;DHT22;10230;51.502;10.800;2023-04-06T06:36:16;4.10;99.90
20139;DHT22;10230;51.502;10.800;2023-04-06T06:38:42;4.30;99.90
20139;DHT22;10230;51.502;10.800;2023-04-06T06:41:07;4.40;99.90
20139;DHT22;10230;51.502;10.800;2023-04-06T06:43:33;4.50;99.90
20139;DHT22;10230;51.502;10.800;2023-04-06T07:07:55;6.00;99.90
20139;DHT22;10230;51.502;10.800;2023-04-06T07:10:21;6.00;99.90
20139;DHT22;10230;51.502;10.800;2023-04-06T07:12:46;6.10;99.90
20139;DHT22;10230;51.502;10.800;2023-04-06T07:15:12;6.30;99.90
20139;DHT22;10230;51.502;10.800;2023-04-06T07:17:38;6.40;99.90
20139;DHT22;10230;51.502;10.800;2023-04-06T07:20:04;6.60;99.90
20139;DHT22;10230;51.502;10.800;2023-04-06T07:22:30;6.70;99.90
20139;DHT22;10230;51.502;10.800;2023-04-06T07:24:56;6.90;99.90
20139;DHT22;10230;51.502;10.800;2023-04-06T07:27:22;7.00;99.90
20139;DHT22;10230;51.502;10.800;2023-04-06T07:29:47;7.20;99.90
20139;DHT22;10230;51.502;10.800;2023-04-06T07:32:13;7.40;99.90
20139;DHT22;10230;51.502;10.800;2023-04-06T07:41:57;8.40;99.90
20139;DHT22;10230;51.502;10.800;2023-04-06T07:46:49;9.00;99.90
20139;DHT22;10230;51.502;10.800;2023-04-06T07:49:14;9.30;99.90
20139;DHT22;10230;51.502;10.800;2023-04-06T07:51:40;9.60;99.90
20139;DHT22;10230;51.502;10.800;2023-04-06T07:54:06;9.90;99.90
20139;DHT22;10230;51.502;10.800;2023-04-06T07:58:58;10.70;99.90
20139;DHT22;10230;51.502;10.800;2023-04-06T08:06:17;13.50;99.90
20139;DHT22;10230;51.502;10.800;2023-04-06T08:08:43;14.50;91.10
20139;DHT22;10230;51.502;10.800;2023-04-06T08:33:08;32.20;63.00
20139;DHT22;10230;51.502;10.800;2023-04-06T08:40:26;34.90;26.90
20139;DHT22;10230;51.502;10.800;2023-04-06T08:52:51;37.90;23.50
20139;DHT22;10230;51.502;10.800;2023-04-06T09:00:10;39.30;22.10
20139;DHT22;10230;51.502;10.800;2023-04-06T09:05:08;40.30;21.00
20139;DHT22;10230;51.502;10.800;2023-04-06T09:07:36;40.40;21.60
20139;DHT22;10230;51.502;10.800;2023-04-06T09:10:02;40.60;21.40
20139;DHT22;10230;51.502;10.800;2023-04-06T09:12:30;41.00;21.20
20139;DHT22;10230;51.502;10.800;2023-04-06T10:08:11;40.40;19.10
20139;DHT22;10230;51.502;10.800;2023-04-06T10:10:37;40.80;19.00
20139;DHT22;10230;51.502;10.800;2023-04-06T10:13:07;40.90;18.70
20139;DHT22;10230;51.502;10.800;2023-04-06T10:15:33;40.70;18.70
20139;DHT22;10230;51.502;10.800;2023-04-06T10:17:59;40.10;19.00
20139;DHT22;10230;51.502;10.800;2023-04-06T10:23:48;38.70;20.00
20139;DHT22;10230;51.502;10.800;2023-04-06T10:26:16;38.90;19.60
20139;DHT22;10230;51.502;10.800;2023-04-06T10:33:36;37.10;19.70
20139;DHT22;10230;51.502;10.800;2023-04-06T11:35:20;30.30;25.90
20139;DHT22;10230;51.502;10.800;2023-04-06T11:50:09;27.30;22.50
20139;DHT22;10230;51.502;10.800;2023-04-06T13:06:04;16.40;60.80
20139;DHT22;10230;51.502;10.800;2023-04-06T13:08:30;15.90;62.00
20139;DHT22;10230;51.502;10.800;2023-04-06T13:10:56;16.10;65.10
20139;DHT22;10230;51.502;10.800;2023-04-06T13:13:27;15.90;68.40
20139;DHT22;10230;51.502;10.800;2023-04-06T13:15:55;15.70;68.80
20139;DHT22;10230;51.502;10.800;2023-04-06T13:18:22;15.60;55.80
20139;DHT22;10230;51.502;10.800;2023-04-06T13:20:48;15.80;52.50
20139;DHT22;10230;51.502;10.800;2023-04-06T13:23:14;16.00;55.80
20139;DHT22;10230;51.502;10.800;2023-04-06T13:25:40;16.10;53.00
20139;DHT22;10230;51.502;10.800;2023-04-06T13:28:06;15.90;52.10
20139;DHT22;10230;51.502;10.800;2023-04-06T13:30:32;15.80;52.70
20139;DHT22;10230;51.502;10.800;2023-04-06T13:32:58;15.80;53.80
20139;DHT22;10230;51.502;10.800;2023-04-06T13:35:23;15.20;53.70
20139;DHT22;10230;51.502;10.800;2023-04-06T13:37:49;15.60;56.90
20139;DHT22;10230;51.502;10.800;2023-04-06T13:40:17;15.50;52.00
20139;DHT22;10230;51.502;10.800;2023-04-06T13:42:43;15.70;53.90
20139;DHT22;10230;51.502;10.800;2023-04-06T13:45:10;15.80;52.30
20139;DHT22;10230;51.502;10.800;2023-04-06T13:47:36;15.80;52.60
20139;DHT22;10230;51.502;10.800;2023-04-06T13:50:02;16.00;51.50
20139;DHT22;10230;51.502;10.800;2023-04-06T13:52:29;15.80;50.20
20139;DHT22;10230;51.502;10.800;2023-04-06T13:54:54;15.40;71.10
20139;DHT22;10230;51.502;10.800;2023-04-06T13:57:20;14.90;71.20
20139;DHT22;10230;51.502;10.800;2023-04-06T13:59:46;14.80;63.30
20139;DHT22;10230;51.502;10.800;2023-04-06T14:02:12;15.00;63.30
20139;DHT22;10230;51.502;10.800;2023-04-06T17:44:57;10.80;97.50
20139;DHT22;10230;51.502;10.800;2023-04-06T17:57:16;10.40;57.50
20139;DHT22;10230;51.502;10.800;2023-04-06T17:59:42;10.30;58.90
20139;DHT22;10230;51.502;10.800;2023-04-06T18:04:34;9.80;99.90
20139;DHT22;10230;51.502;10.800;2023-04-06T18:07:00;10.00;60.80
20139;DHT22;10230;51.502;10.800;2023-04-06T18:09:26;9.90;61.20
20139;DHT22;10230;51.502;10.800;2023-04-06T18:11:51;9.80;61.50
20139;DHT22;10230;51.502;10.800;2023-04-06T18:14:17;9.70;61.90
20139;DHT22;10230;51.502;10.800;2023-04-06T18:16:43;9.60;62.20
20139;DHT22;10230;51.502;10.800;2023-04-06T18:19:09;9.60;64.10
20139;DHT22;10230;51.502;10.800;2023-04-06T18:21:35;9.50;66.30
20139;DHT22;10230;51.502;10.800;2023-04-06T18:24:01;9.40;64.60
20139;DHT22;10230;51.502;10.800;2023-04-06T19:17:55;8.60;82.50
20139;DHT22;10230;51.502;10.800;2023-04-06T19:22:47;8.40;99.90
20139;DHT22;10230;51.502;10.800;2023-04-06T19:25:17;8.40;91.30
20139;DHT22;10230;51.502;10.800;2023-04-06T19:27:43;8.30;88.90
20139;DHT22;10230;51.502;10.800;2023-04-06T19:30:09;8.20;90.70
20139;DHT22;10230;51.502;10.800;2023-04-06T19:32:36;8.20;91.10
20139;DHT22;10230;51.502;10.800;2023-04-06T19:35:02;8.10;89.40
20139;DHT22;10230;51.502;10.800;2023-04-06T19:37:31;8.10;91.30
20139;DHT22;10230;51.502;10.800;2023-04-06T19:39:57;8.00;94.00
20139;DHT22;10230;51.502;10.800;2023-04-06T19:42:23;7.90;95.90
20139;DHT22;10230;51.502;10.800;2023-04-06T19:44:50;7.90;93.70
20139;DHT22;10230;51.502;10.800;2023-04-06T19:47:16;7.80;92.30
20139;DHT22;10230;51.502;10.800;2023-04-06T19:49:41;7.80;94.20
20139;DHT22;10230;51.502;10.800;2023-04-06T19:52:08;7.50;95.10
20139;DHT22;10230;51.502;10.800;2023-04-06T19:54:35;7.80;92.60
20139;DHT22;10230;51.502;10.800;2023-04-06T19:57:01;7.70;94.90
20139;DHT22;10230;51.502;10.800;2023-04-06T20:01:54;7.60;94.30
20139;DHT22;10230;51.502;10.800;2023-04-06T20:04:20;7.50;95.30
20139;DHT22;10230;51.502;10.800;2023-04-06T20:06:45;7.50;94.80
20139;DHT22;10230;51.502;10.800;2023-04-06T20:09:11;7.40;95.30
20139;DHT22;10230;51.502;10.800;2023-04-06T20:11:39;7.40;95.60
20139;DHT22;10230;51.502;10.800;2023-04-06T20:14:05;7.30;99.90
20139;DHT22;10230;51.502;10.800;2023-04-06T20:16:30;7.30;99.90
20139;DHT22;10230;51.502;10.800;2023-04-06T20:18:56;7.30;99.90
20139;DHT22;10230;51.502;10.800;2023-04-06T20:21:22;7.20;99.90
20139;DHT22;10230;51.502;10.800;2023-04-06T20:23:47;7.20;98.70
20139;DHT22;10230;51.502;10.800;2023-04-06T20:26:13;7.10;98.20
20139;DHT22;10230;51.502;10.800;2023-04-06T20:28:39;7.10;96.50
20139;DHT22;10230;51.502;10.800;2023-04-06T20:31:05;7.10;98.20
20139;DHT22;10230;51.502;10.800;2023-04-06T20:33:33;7.00;99.90
20139;DHT22;10230;51.502;10.800;2023-04-06T20:35:59;7.00;99.90
20139;DHT22;10230;51.502;10.800;2023-04-06T20:38:26;7.00;99.90
20139;DHT22;10230;51.502;10.800;2023-04-06T20:40:52;7.00;98.90
20139;DHT22;10230;51.502;10.800;2023-04-06T20:43:18;6.90;98.30
20139;DHT22;10230;51.502;10.800;2023-04-06T20:45:50;6.90;98.50
20139;DHT22;10230;51.502;10.800;2023-04-06T20:50:42;6.80;99.90
20139;DHT22;10230;51.502;10.800;2023-04-06T20:53:08;6.70;99.90
20139;DHT22;10230;51.502;10.800;2023-04-06T20:55:33;6.70;99.90
20139;DHT22;10230;51.502;10.800;2023-04-06T20:58:04;6.70;99.90
20139;DHT22;10230;51.502;10.800;2023-04-06T21:05:23;6.50;99.90
20139;DHT22;10230;51.502;10.800;2023-04-06T21:07:48;6.50;99.90
20139;DHT22;10230;51.502;10.800;2023-04-06T21:10:14;6.40;99.90
20139;DHT22;10230;51.502;10.800;2023-04-06T21:12:40;6.40;99.90
20139;DHT22;10230;51.502;10.800;2023-04-06T21:27:20;6.20;99.90
20139;DHT22;10230;51.502;10.800;2023-04-06T21:29:46;6.20;99.90
20139;DHT22;10230;51.502;10.800;2023-04-06T21:32:12;6.10;99.90
20139;DHT22;10230;51.502;10.800;2023-04-06T21:34:40;6.10;99.90
20139;DHT22;10230;51.502;10.800;2023-04-06T21:37:06;6.10;99.90
20139;DHT22;10230;51.502;10.800;2023-04-06T21:39:32;6.00;99.90
20139;DHT22;10230;51.502;10.800;2023-04-06T21:42:00;6.00;99.90
20139;DHT22;10230;51.502;10.800;2023-04-06T21:44:26;6.00;99.90
20139;DHT22;10230;51.502;10.800;2023-04-06T21:46:51;5.90;99.90
20139;DHT22;10230;51.502;10.800;2023-04-06T21:49:17;5.90;99.90
20139;DHT22;10230;51.502;10.800;2023-04-06T21:51:43;5.90;99.90
20139;DHT22;10230;51.502;10.800;2023-04-06T21:54:08;5.90;99.90
20139;DHT22;10230;51.502;10.800;2023-04-06T21:56:34;5.80;99.90
20139;DHT22;10230;51.502;10.800;2023-04-06T21:58:59;5.80;99.90
20139;DHT22;10230;51.502;10.800;2023-04-06T22:01:25;5.80;99.90
20139;DHT22;10230;51.502;10.800;2023-04-06T22:03:52;5.80;99.90
20139;DHT22;10230;51.502;10.800;2023-04-06T22:06:18;5.70;99.90
20139;DHT22;10230;51.502;10.800;2023-04-06T22:08:44;5.70;99.90
20139;DHT22;10230;51.502;10.800;2023-04-06T22:11:12;5.60;99.90
